Tonos — V7EF2 — position and weather

sailwx.info

Track history (hours):
 
Tides and Currents Weather Stations Pressure Air Temp Water Temp Dewpoint Dewpoint Depression Visibility Wind Speed Wind Dir Waves Ship Positions

Tonos

Last reported at 2016-Jul-26 05:25 UTC. Time now 2016-Jul-26 19:49 UTC.
Position N 31°18' E 032°22'.

Length 274 m; draft 15.7 m.

Type: Tanker. MMSI: 538006541.

Date/timePositionNaut miles runAvg speedWind from/ knotsBaromVisibWave heightAir tempDewpointWater temp
2016-Jul-26 05:25N 31°18' E 032°22'11 1.3
2016-Jul-25 21:22N 31°28' E 032°19'0 0.0
2016-Jul-25 20:05N 31°28' E 032°19'0 0.0
2016-Jul-25 19:18N 31°28' E 032°19'0 0.0
2016-Jul-25 18:23N 31°28' E 032°19'0 0.0
2016-Jul-25 17:32N 31°28' E 032°19'0 0.0
2016-Jul-25 16:22N 31°28' E 032°19'0 0.0
2016-Jul-25 15:33N 31°28' E 032°19'2 1.4
2016-Jul-25 14:27N 31°30' E 032°18'8 8.8
2016-Jul-25 13:33N 31°34' E 032°11'1812.3
2016-Jul-25 12:06N 31°46' E 031°55'713.0
2016-Jul-25 11:32N 31°50' E 031°48'9613.8
2016-Jul-25 04:33N 33°01' E 030°32'1313.3
2016-Jul-25 03:33N 33°11' E 030°21'1413.3
2016-Jul-25 02:32N 33°21' E 030°10'4413.5
2016-Jul-24 23:15N 33°54' E 029°35'27713.3
2016-Jul-24 02:25N 37°25' E 025°55'2613.4
2016-Jul-24 00:30N 37°48' E 025°40'12413.4
2016-Jul-23 15:15N 39°53' E 025°50'1013.6
2016-Jul-23 14:32N 40°01' E 025°58'  
2016-Jul-20 14:04N 45°05' E 036°33'0 0.0
2016-Jul-20 13:25N 45°05' E 036°33'0 0.0
2016-Jul-20 09:19N 45°05' E 036°33'0 0.0
2016-Jul-20 08:33N 45°05' E 036°33'0 0.0
2016-Jul-20 07:33N 45°05' E 036°33'0 0.0
2016-Jul-20 06:34N 45°05' E 036°33'0 0.0
2016-Jul-20 05:31N 45°05' E 036°33'0 0.0
2016-Jul-20 04:33N 45°05' E 036°33'0 0.0
2016-Jul-20 03:33N 45°05' E 036°33'0 0.0
2016-Jul-20 02:33N 45°05' E 036°33'0 0.0
2016-Jul-20 01:33N 45°05' E 036°33'0 0.1
2016-Jul-19 22:17N 45°05' E 036°34'1 1.9
2016-Jul-19 21:31N 45°06' E 036°32'2 1.6
2016-Jul-19 20:32N 45°06' E 036°34'0 0.0
2016-Jul-19 19:32N 45°06' E 036°34'0 0.0
2016-Jul-19 18:26N 45°06' E 036°34'0 0.0
2016-Jul-19 17:14N 45°06' E 036°34'0 0.1
2016-Jul-19 16:26N 45°06' E 036°34'0 0.1
2016-Jul-19 15:32N 45°06' E 036°34'0 0.0
2016-Jul-19 14:26N 45°06' E 036°34'0 0.0
2016-Jul-19 13:32N 45°06' E 036°34'0 0.0
2016-Jul-19 12:20N 45°06' E 036°34'0 0.0
2016-Jul-19 10:23N 45°06' E 036°34'0 0.0
2016-Jul-19 09:26N 45°06' E 036°34'0 0.1
2016-Jul-19 08:17N 45°06' E 036°34'0 0.0
2016-Jul-19 07:26N 45°06' E 036°34'0 0.0
2016-Jul-19 04:32N 45°06' E 036°34'0 0.0
2016-Jul-19 03:32N 45°06' E 036°34'0 0.0
2016-Jul-19 02:29N 45°06' E 036°34'0 0.0
2016-Jul-18 22:26N 45°06' E 036°34'0 0.1
2016-Jul-18 18:26N 45°06' E 036°34'0 0.0
2016-Jul-18 16:32N 45°06' E 036°34'0 0.0
2016-Jul-18 15:32N 45°06' E 036°34'0 0.1
2016-Jul-18 14:32N 45°06' E 036°34'0 0.0
2016-Jul-18 12:23N 45°06' E 036°34'0 0.0
2016-Jul-18 11:23N 45°06' E 036°34'0 0.0
2016-Jul-17 23:11N 45°06' E 036°34'0 0.0
2016-Jul-17 22:32N 45°06' E 036°34'0 0.1
2016-Jul-17 21:17N 45°06' E 036°34'0 0.1
2016-Jul-17 20:29N 45°06' E 036°34'0 0.1
2016-Jul-17 19:32N 45°06' E 036°34'0 0.1
2016-Jul-17 18:32N 45°06' E 036°34'0 0.0
2016-Jul-17 17:29N 45°06' E 036°34'0 0.0
2016-Jul-17 16:32N 45°06' E 036°34'0 0.1
2016-Jul-17 15:29N 45°06' E 036°34'1 0.1
2016-Jul-17 04:33N 45°06' E 036°32'1 1.2
2016-Jul-17 03:26N 45°07' E 036°33'0 0.0
2016-Jul-17 02:32N 45°07' E 036°33'0 0.0
2016-Jul-17 01:32N 45°07' E 036°33'0 0.0
2016-Jul-16 23:08N 45°07' E 036°33'0 0.0
2016-Jul-16 22:32N 45°07' E 036°33'0 0.0
2016-Jul-16 21:32N 45°07' E 036°33'0 0.1
2016-Jul-16 20:08N 45°07' E 036°34'0 0.2
2016-Jul-16 19:29N 45°07' E 036°34'0 0.1
2016-Jul-16 18:32N 45°08' E 036°34'0 0.0
2016-Jul-16 17:23N 45°08' E 036°34'0 0.0
2016-Jul-16 16:29N 45°08' E 036°34'0 0.0
2016-Jul-16 15:29N 45°08' E 036°34'0 0.0
2016-Jul-16 14:32N 45°08' E 036°34'0 0.0
2016-Jul-16 13:29N 45°08' E 036°34'0 0.0
2016-Jul-16 12:32N 45°08' E 036°34'0 0.0
2016-Jul-16 11:32N 45°08' E 036°34'0 0.0
2016-Jul-16 10:32N 45°08' E 036°34'0 0.0
2016-Jul-16 09:32N 45°08' E 036°34'0 0.0
2016-Jul-16 08:29N 45°08' E 036°34'0 0.0
2016-Jul-16 07:32N 45°08' E 036°34'0 0.0
2016-Jul-16 06:29N 45°08' E 036°34'  
Track history (hours):
 
Tides and Currents Weather Stations Pressure Air Temp Water Temp Dewpoint Dewpoint Depression Visibility Wind Speed Wind Dir Waves Ship Positions

Tonos

Last reported at 2016-Jul-26 05:25 UTC. Time now 2016-Jul-26 19:49 UTC.
Position N 31°18' E 032°22'.

Length 274 m; draft 15.7 m.

Type: Tanker. MMSI: 538006541.

Date/timePositionNaut miles runAvg speedWind from/ knotsBaromVisibWave heightAir tempDewpointWater temp
2016-Jul-26 05:25N 31°18' E 032°22'11 1.3
2016-Jul-25 21:22N 31°28' E 032°19'0 0.0
2016-Jul-25 20:05N 31°28' E 032°19'0 0.0
2016-Jul-25 19:18N 31°28' E 032°19'0 0.0
2016-Jul-25 18:23N 31°28' E 032°19'0 0.0
2016-Jul-25 17:32N 31°28' E 032°19'0 0.0
2016-Jul-25 16:22N 31°28' E 032°19'0 0.0
2016-Jul-25 15:33N 31°28' E 032°19'2 1.4
2016-Jul-25 14:27N 31°30' E 032°18'8 8.8
2016-Jul-25 13:33N 31°34' E 032°11'1812.3
2016-Jul-25 12:06N 31°46' E 031°55'713.0
2016-Jul-25 11:32N 31°50' E 031°48'9613.8
2016-Jul-25 04:33N 33°01' E 030°32'1313.3
2016-Jul-25 03:33N 33°11' E 030°21'1413.3
2016-Jul-25 02:32N 33°21' E 030°10'4413.5
2016-Jul-24 23:15N 33°54' E 029°35'27713.3
2016-Jul-24 02:25N 37°25' E 025°55'2613.4
2016-Jul-24 00:30N 37°48' E 025°40'12413.4
2016-Jul-23 15:15N 39°53' E 025°50'1013.6
2016-Jul-23 14:32N 40°01' E 025°58'  
2016-Jul-20 14:04N 45°05' E 036°33'0 0.0
2016-Jul-20 13:25N 45°05' E 036°33'0 0.0
2016-Jul-20 09:19N 45°05' E 036°33'0 0.0
2016-Jul-20 08:33N 45°05' E 036°33'0 0.0
2016-Jul-20 07:33N 45°05' E 036°33'0 0.0
2016-Jul-20 06:34N 45°05' E 036°33'0 0.0
2016-Jul-20 05:31N 45°05' E 036°33'0 0.0
2016-Jul-20 04:33N 45°05' E 036°33'0 0.0
2016-Jul-20 03:33N 45°05' E 036°33'0 0.0
2016-Jul-20 02:33N 45°05' E 036°33'0 0.0
2016-Jul-20 01:33N 45°05' E 036°33'0 0.1
2016-Jul-19 22:17N 45°05' E 036°34'1 1.9
2016-Jul-19 21:31N 45°06' E 036°32'2 1.6
2016-Jul-19 20:32N 45°06' E 036°34'0 0.0
2016-Jul-19 19:32N 45°06' E 036°34'0 0.0
2016-Jul-19 18:26N 45°06' E 036°34'0 0.0
2016-Jul-19 17:14N 45°06' E 036°34'0 0.1
2016-Jul-19 16:26N 45°06' E 036°34'0 0.1
2016-Jul-19 15:32N 45°06' E 036°34'0 0.0
2016-Jul-19 14:26N 45°06' E 036°34'0 0.0
2016-Jul-19 13:32N 45°06' E 036°34'0 0.0
2016-Jul-19 12:20N 45°06' E 036°34'0 0.0
2016-Jul-19 10:23N 45°06' E 036°34'0 0.0
2016-Jul-19 09:26N 45°06' E 036°34'0 0.1
2016-Jul-19 08:17N 45°06' E 036°34'0 0.0
2016-Jul-19 07:26N 45°06' E 036°34'0 0.0
2016-Jul-19 04:32N 45°06' E 036°34'0 0.0
2016-Jul-19 03:32N 45°06' E 036°34'0 0.0
2016-Jul-19 02:29N 45°06' E 036°34'0 0.0
2016-Jul-18 22:26N 45°06' E 036°34'0 0.1
2016-Jul-18 18:26N 45°06' E 036°34'0 0.0
2016-Jul-18 16:32N 45°06' E 036°34'0 0.0
2016-Jul-18 15:32N 45°06' E 036°34'0 0.1
2016-Jul-18 14:32N 45°06' E 036°34'0 0.0
2016-Jul-18 12:23N 45°06' E 036°34'0 0.0
2016-Jul-18 11:23N 45°06' E 036°34'0 0.0
2016-Jul-17 23:11N 45°06' E 036°34'0 0.0
2016-Jul-17 22:32N 45°06' E 036°34'0 0.1
2016-Jul-17 21:17N 45°06' E 036°34'0 0.1
2016-Jul-17 20:29N 45°06' E 036°34'0 0.1
2016-Jul-17 19:32N 45°06' E 036°34'0 0.1
2016-Jul-17 18:32N 45°06' E 036°34'0 0.0
2016-Jul-17 17:29N 45°06' E 036°34'0 0.0
2016-Jul-17 16:32N 45°06' E 036°34'0 0.1
2016-Jul-17 15:29N 45°06' E 036°34'1 0.1
2016-Jul-17 04:33N 45°06' E 036°32'1 1.2
2016-Jul-17 03:26N 45°07' E 036°33'0 0.0
2016-Jul-17 02:32N 45°07' E 036°33'0 0.0
2016-Jul-17 01:32N 45°07' E 036°33'0 0.0
2016-Jul-16 23:08N 45°07' E 036°33'0 0.0
2016-Jul-16 22:32N 45°07' E 036°33'0 0.0
2016-Jul-16 21:32N 45°07' E 036°33'0 0.1
2016-Jul-16 20:08N 45°07' E 036°34'0 0.2
2016-Jul-16 19:29N 45°07' E 036°34'0 0.1
2016-Jul-16 18:32N 45°08' E 036°34'0 0.0
2016-Jul-16 17:23N 45°08' E 036°34'0 0.0
2016-Jul-16 16:29N 45°08' E 036°34'0 0.0
2016-Jul-16 15:29N 45°08' E 036°34'0 0.0
2016-Jul-16 14:32N 45°08' E 036°34'0 0.0
2016-Jul-16 13:29N 45°08' E 036°34'0 0.0
2016-Jul-16 12:32N 45°08' E 036°34'0 0.0
2016-Jul-16 11:32N 45°08' E 036°34'0 0.0
2016-Jul-16 10:32N 45°08' E 036°34'0 0.0
2016-Jul-16 09:32N 45°08' E 036°34'0 0.0
2016-Jul-16 08:29N 45°08' E 036°34'0 0.0
2016-Jul-16 07:32N 45°08' E 036°34'0 0.0
2016-Jul-16 06:29N 45°08' E 036°34'  

Dump ship's entire track history